sensor_id;sensor_type;location;lat;lon;timestamp;P1;durP1;ratioP1;P2;durP2;ratioP2
63016;SDS011;50274;45.640;11.756;2022-07-29T00:01:07;6.88;;;1.63;;
63016;SDS011;50274;45.640;11.756;2022-07-29T00:03:33;7.38;;;1.95;;
63016;SDS011;50274;45.640;11.756;2022-07-29T00:05:59;5.47;;;2.03;;
63016;SDS011;50274;45.640;11.756;2022-07-29T00:08:24;6.20;;;2.30;;
63016;SDS011;50274;45.640;11.756;2022-07-29T00:10:50;5.10;;;2.10;;
63016;SDS011;50274;45.640;11.756;2022-07-29T00:13:16;4.47;;;1.67;;
63016;SDS011;50274;45.640;11.756;2022-07-29T00:15:42;7.03;;;2.00;;
63016;SDS011;50274;45.640;11.756;2022-07-29T00:18:07;5.53;;;1.87;;
63016;SDS011;50274;45.640;11.756;2022-07-29T00:20:33;5.07;;;1.75;;
63016;SDS011;50274;45.640;11.756;2022-07-29T00:22:59;4.47;;;1.40;;
63016;SDS011;50274;45.640;11.756;2022-07-29T00:25:25;5.30;;;1.40;;
63016;SDS011;50274;45.640;11.756;2022-07-29T00:27:51;5.18;;;1.40;;
63016;SDS011;50274;45.640;11.756;2022-07-29T00:30:16;4.50;;;1.07;;
63016;SDS011;50274;45.640;11.756;2022-07-29T00:32:42;3.47;;;0.82;;
63016;SDS011;50274;45.640;11.756;2022-07-29T00:35:08;4.05;;;1.10;;
63016;SDS011;50274;45.640;11.756;2022-07-29T00:37:53;5.67;;;1.13;;
63016;SDS011;50274;45.640;11.756;2022-07-29T00:40:18;4.25;;;1.13;;
63016;SDS011;50274;45.640;11.756;2022-07-29T00:42:45;6.50;;;1.20;;
63016;SDS011;50274;45.640;11.756;2022-07-29T00:45:13;4.60;;;1.03;;
63016;SDS011;50274;45.640;11.756;2022-07-29T00:47:39;3.83;;;1.20;;
63016;SDS011;50274;45.640;11.756;2022-07-29T00:50:06;4.97;;;1.50;;
63016;SDS011;50274;45.640;11.756;2022-07-29T00:52:33;4.68;;;1.25;;
63016;SDS011;50274;45.640;11.756;2022-07-29T00:55:03;4.38;;;1.33;;
63016;SDS011;50274;45.640;11.756;2022-07-29T00:57:30;5.00;;;1.33;;
63016;SDS011;50274;45.640;11.756;2022-07-29T00:59:57;3.45;;;1.08;;
63016;SDS011;50274;45.640;11.756;2022-07-29T01:02:23;3.97;;;1.00;;
63016;SDS011;50274;45.640;11.756;2022-07-29T01:04:48;3.77;;;1.33;;
63016;SDS011;50274;45.640;11.756;2022-07-29T01:07:15;4.30;;;1.20;;
63016;SDS011;50274;45.640;11.756;2022-07-29T01:09:41;5.57;;;1.30;;
63016;SDS011;50274;45.640;11.756;2022-07-29T01:12:08;3.92;;;1.42;;
63016;SDS011;50274;45.640;11.756;2022-07-29T01:14:35;3.80;;;1.13;;
63016;SDS011;50274;45.640;11.756;2022-07-29T01:17:05;4.70;;;1.30;;
63016;SDS011;50274;45.640;11.756;2022-07-29T01:28:06;4.97;;;1.30;;
63016;SDS011;50274;45.640;11.756;2022-07-29T01:30:42;3.80;;;1.20;;
63016;SDS011;50274;45.640;11.756;2022-07-29T01:33:13;4.15;;;1.20;;
63016;SDS011;50274;45.640;11.756;2022-07-29T01:36:04;4.60;;;1.20;;
63016;SDS011;50274;45.640;11.756;2022-07-29T01:38:35;3.88;;;1.00;;
63016;SDS011;50274;45.640;11.756;2022-07-29T01:41:07;4.22;;;0.98;;
63016;SDS011;50274;45.640;11.756;2022-07-29T01:43:38;2.67;;;1.00;;
63016;SDS011;50274;45.640;11.756;2022-07-29T01:46:11;3.85;;;0.90;;
63016;SDS011;50274;45.640;11.756;2022-07-29T01:48:45;4.03;;;0.98;;
63016;SDS011;50274;45.640;11.756;2022-07-29T01:51:18;3.67;;;1.13;;
63016;SDS011;50274;45.640;11.756;2022-07-29T01:53:48;3.58;;;0.90;;
63016;SDS011;50274;45.640;11.756;2022-07-29T01:56:23;4.10;;;1.20;;
63016;SDS011;50274;45.640;11.756;2022-07-29T01:58:54;3.05;;;0.90;;
63016;SDS011;50274;45.640;11.756;2022-07-29T02:01:22;4.32;;;1.08;;
63016;SDS011;50274;45.640;11.756;2022-07-29T02:03:50;4.25;;;1.25;;
63016;SDS011;50274;45.640;11.756;2022-07-29T02:06:18;5.75;;;1.48;;
63016;SDS011;50274;45.640;11.756;2022-07-29T02:08:47;6.27;;;1.30;;
63016;SDS011;50274;45.640;11.756;2022-07-29T02:11:16;4.13;;;1.02;;
63016;SDS011;50274;45.640;11.756;2022-07-29T02:13:42;4.07;;;1.00;;
63016;SDS011;50274;45.640;11.756;2022-07-29T02:16:09;3.42;;;1.10;;
63016;SDS011;50274;45.640;11.756;2022-07-29T02:18:37;4.72;;;1.45;;
63016;SDS011;50274;45.640;11.756;2022-07-29T02:21:05;3.13;;;0.87;;
63016;SDS011;50274;45.640;11.756;2022-07-29T02:23:32;5.00;;;1.05;;
63016;SDS011;50274;45.640;11.756;2022-07-29T02:26:00;3.47;;;1.00;;
63016;SDS011;50274;45.640;11.756;2022-07-29T02:28:28;3.20;;;0.90;;
63016;SDS011;50274;45.640;11.756;2022-07-29T02:30:57;3.70;;;1.10;;
63016;SDS011;50274;45.640;11.756;2022-07-29T02:33:25;4.43;;;1.10;;
63016;SDS011;50274;45.640;11.756;2022-07-29T02:35:53;3.72;;;1.10;;
63016;SDS011;50274;45.640;11.756;2022-07-29T02:38:21;6.80;;;1.20;;
63016;SDS011;50274;45.640;11.756;2022-07-29T02:41:11;3.70;;;0.90;;
63016;SDS011;50274;45.640;11.756;2022-07-29T02:43:40;3.65;;;0.95;;
63016;SDS011;50274;45.640;11.756;2022-07-29T02:46:11;3.50;;;1.30;;
63016;SDS011;50274;45.640;11.756;2022-07-29T02:48:48;3.35;;;1.08;;
63016;SDS011;50274;45.640;11.756;2022-07-29T02:51:24;2.90;;;0.88;;
63016;SDS011;50274;45.640;11.756;2022-07-29T02:53:56;3.97;;;1.20;;
63016;SDS011;50274;45.640;11.756;2022-07-29T02:56:24;4.07;;;1.08;;
63016;SDS011;50274;45.640;11.756;2022-07-29T02:58:54;2.90;;;0.90;;
63016;SDS011;50274;45.640;11.756;2022-07-29T03:01:22;3.53;;;0.98;;
63016;SDS011;50274;45.640;11.756;2022-07-29T03:03:51;3.05;;;0.82;;
63016;SDS011;50274;45.640;11.756;2022-07-29T03:06:19;3.03;;;1.02;;
63016;SDS011;50274;45.640;11.756;2022-07-29T03:08:47;5.13;;;1.27;;
63016;SDS011;50274;45.640;11.756;2022-07-29T03:11:14;3.03;;;0.80;;
63016;SDS011;50274;45.640;11.756;2022-07-29T03:13:41;3.33;;;1.08;;
63016;SDS011;50274;45.640;11.756;2022-07-29T03:16:08;3.85;;;1.20;;
63016;SDS011;50274;45.640;11.756;2022-07-29T03:18:34;3.70;;;1.15;;
63016;SDS011;50274;45.640;11.756;2022-07-29T03:21:02;3.90;;;1.08;;
63016;SDS011;50274;45.640;11.756;2022-07-29T03:23:28;5.40;;;1.10;;
63016;SDS011;50274;45.640;11.756;2022-07-29T03:25:54;5.00;;;1.40;;
63016;SDS011;50274;45.640;11.756;2022-07-29T03:28:20;4.22;;;1.30;;
63016;SDS011;50274;45.640;11.756;2022-07-29T03:30:47;4.38;;;1.30;;
63016;SDS011;50274;45.640;11.756;2022-07-29T03:33:13;5.10;;;0.93;;
63016;SDS011;50274;45.640;11.756;2022-07-29T03:35:39;4.05;;;1.20;;
63016;SDS011;50274;45.640;11.756;2022-07-29T03:38:05;4.93;;;1.25;;
63016;SDS011;50274;45.640;11.756;2022-07-29T03:40:42;4.97;;;1.30;;
63016;SDS011;50274;45.640;11.756;2022-07-29T03:43:11;4.97;;;1.20;;
63016;SDS011;50274;45.640;11.756;2022-07-29T03:45:41;5.95;;;1.75;;
63016;SDS011;50274;45.640;11.756;2022-07-29T03:48:10;4.93;;;1.38;;
63016;SDS011;50274;45.640;11.756;2022-07-29T03:50:40;3.90;;;1.55;;
63016;SDS011;50274;45.640;11.756;2022-07-29T03:53:06;3.42;;;1.23;;
63016;SDS011;50274;45.640;11.756;2022-07-29T03:55:33;4.07;;;1.43;;
63016;SDS011;50274;45.640;11.756;2022-07-29T03:58:05;3.85;;;1.45;;
63016;SDS011;50274;45.640;11.756;2022-07-29T04:00:33;4.53;;;1.52;;
63016;SDS011;50274;45.640;11.756;2022-07-29T04:02:59;3.35;;;1.20;;
63016;SDS011;50274;45.640;11.756;2022-07-29T04:05:26;3.95;;;1.50;;
63016;SDS011;50274;45.640;11.756;2022-07-29T04:07:52;4.60;;;1.40;;
63016;SDS011;50274;45.640;11.756;2022-07-29T04:10:18;5.97;;;1.77;;
63016;SDS011;50274;45.640;11.756;2022-07-29T04:12:44;4.83;;;2.13;;
63016;SDS011;50274;45.640;11.756;2022-07-29T04:15:10;6.25;;;1.63;;
63016;SDS011;50274;45.640;11.756;2022-07-29T04:17:36;4.75;;;1.60;;
63016;SDS011;50274;45.640;11.756;2022-07-29T04:20:03;7.57;;;2.28;;
63016;SDS011;50274;45.640;11.756;2022-07-29T04:22:29;5.33;;;1.87;;
63016;SDS011;50274;45.640;11.756;2022-07-29T04:24:55;4.55;;;1.60;;
63016;SDS011;50274;45.640;11.756;2022-07-29T04:27:21;4.80;;;1.92;;
63016;SDS011;50274;45.640;11.756;2022-07-29T04:29:47;4.10;;;1.60;;
63016;SDS011;50274;45.640;11.756;2022-07-29T04:32:13;5.30;;;1.63;;
63016;SDS011;50274;45.640;11.756;2022-07-29T04:34:39;4.95;;;1.30;;
63016;SDS011;50274;45.640;11.756;2022-07-29T04:37:05;4.40;;;1.30;;
63016;SDS011;50274;45.640;11.756;2022-07-29T04:39:30;5.13;;;1.70;;
63016;SDS011;50274;45.640;11.756;2022-07-29T04:41:56;3.33;;;1.17;;
63016;SDS011;50274;45.640;11.756;2022-07-29T04:44:22;4.43;;;1.70;;
63016;SDS011;50274;45.640;11.756;2022-07-29T04:46:48;4.70;;;1.75;;
63016;SDS011;50274;45.640;11.756;2022-07-29T04:49:14;6.05;;;1.50;;
63016;SDS011;50274;45.640;11.756;2022-07-29T04:51:39;4.63;;;1.40;;
63016;SDS011;50274;45.640;11.756;2022-07-29T04:54:05;5.03;;;1.60;;
63016;SDS011;50274;45.640;11.756;2022-07-29T04:56:31;4.22;;;1.35;;
63016;SDS011;50274;45.640;11.756;2022-07-29T04:58:57;4.83;;;1.70;;
63016;SDS011;50274;45.640;11.756;2022-07-29T05:01:23;4.65;;;1.33;;
63016;SDS011;50274;45.640;11.756;2022-07-29T05:03:49;5.22;;;1.70;;
63016;SDS011;50274;45.640;11.756;2022-07-29T05:06:14;3.83;;;1.33;;
63016;SDS011;50274;45.640;11.756;2022-07-29T05:08:40;5.07;;;1.58;;
63016;SDS011;50274;45.640;11.756;2022-07-29T05:11:06;5.35;;;1.50;;
63016;SDS011;50274;45.640;11.756;2022-07-29T05:13:32;4.23;;;1.63;;
63016;SDS011;50274;45.640;11.756;2022-07-29T05:15:58;3.70;;;1.40;;
63016;SDS011;50274;45.640;11.756;2022-07-29T05:18:24;5.05;;;1.95;;
63016;SDS011;50274;45.640;11.756;2022-07-29T05:20:50;4.93;;;1.57;;
63016;SDS011;50274;45.640;11.756;2022-07-29T05:23:17;7.07;;;2.00;;
63016;SDS011;50274;45.640;11.756;2022-07-29T05:25:42;7.13;;;1.90;;
63016;SDS011;50274;45.640;11.756;2022-07-29T05:28:08;5.37;;;1.50;;
63016;SDS011;50274;45.640;11.756;2022-07-29T05:30:34;4.97;;;1.60;;
63016;SDS011;50274;45.640;11.756;2022-07-29T05:33:00;4.80;;;1.67;;
63016;SDS011;50274;45.640;11.756;2022-07-29T05:35:26;5.25;;;1.90;;
63016;SDS011;50274;45.640;11.756;2022-07-29T05:37:52;8.13;;;1.97;;
63016;SDS011;50274;45.640;11.756;2022-07-29T05:40:18;6.47;;;2.00;;
63016;SDS011;50274;45.640;11.756;2022-07-29T05:42:43;4.35;;;1.73;;
63016;SDS011;50274;45.640;11.756;2022-07-29T05:45:09;6.23;;;2.20;;
63016;SDS011;50274;45.640;11.756;2022-07-29T05:47:35;5.78;;;2.17;;
63016;SDS011;50274;45.640;11.756;2022-07-29T05:50:01;7.90;;;2.30;;
63016;SDS011;50274;45.640;11.756;2022-07-29T05:52:29;7.30;;;2.80;;
63016;SDS011;50274;45.640;11.756;2022-07-29T05:54:54;10.27;;;2.92;;
63016;SDS011;50274;45.640;11.756;2022-07-29T05:57:22;5.97;;;2.55;;
63016;SDS011;50274;45.640;11.756;2022-07-29T05:59:49;5.05;;;2.50;;
63016;SDS011;50274;45.640;11.756;2022-07-29T06:02:15;5.47;;;2.60;;
63016;SDS011;50274;45.640;11.756;2022-07-29T06:04:42;6.38;;;2.45;;
63016;SDS011;50274;45.640;11.756;2022-07-29T06:07:08;7.85;;;2.50;;
63016;SDS011;50274;45.640;11.756;2022-07-29T06:09:34;4.82;;;2.38;;
63016;SDS011;50274;45.640;11.756;2022-07-29T06:12:00;7.43;;;2.40;;
63016;SDS011;50274;45.640;11.756;2022-07-29T06:14:26;5.53;;;2.22;;
63016;SDS011;50274;45.640;11.756;2022-07-29T06:16:53;6.80;;;2.50;;
63016;SDS011;50274;45.640;11.756;2022-07-29T06:19:19;6.50;;;2.25;;
63016;SDS011;50274;45.640;11.756;2022-07-29T06:21:46;9.50;;;2.53;;
63016;SDS011;50274;45.640;11.756;2022-07-29T06:24:12;6.07;;;2.50;;
63016;SDS011;50274;45.640;11.756;2022-07-29T06:26:39;5.60;;;2.22;;
63016;SDS011;50274;45.640;11.756;2022-07-29T06:29:06;7.95;;;2.40;;
63016;SDS011;50274;45.640;11.756;2022-07-29T06:31:32;6.45;;;2.55;;
63016;SDS011;50274;45.640;11.756;2022-07-29T06:33:58;5.40;;;2.30;;
63016;SDS011;50274;45.640;11.756;2022-07-29T06:36:24;6.90;;;2.35;;
63016;SDS011;50274;45.640;11.756;2022-07-29T06:38:50;6.03;;;2.50;;
63016;SDS011;50274;45.640;11.756;2022-07-29T06:41:16;5.53;;;2.23;;
63016;SDS011;50274;45.640;11.756;2022-07-29T06:43:43;7.03;;;2.58;;
63016;SDS011;50274;45.640;11.756;2022-07-29T06:46:10;7.80;;;2.30;;
63016;SDS011;50274;45.640;11.756;2022-07-29T06:48:37;5.47;;;2.47;;
63016;SDS011;50274;45.640;11.756;2022-07-29T06:51:05;6.73;;;2.40;;
63016;SDS011;50274;45.640;11.756;2022-07-29T06:53:32;5.90;;;2.70;;
63016;SDS011;50274;45.640;11.756;2022-07-29T06:55:59;6.38;;;2.20;;
63016;SDS011;50274;45.640;11.756;2022-07-29T06:58:26;4.72;;;2.35;;
63016;SDS011;50274;45.640;11.756;2022-07-29T07:00:52;7.32;;;2.25;;
63016;SDS011;50274;45.640;11.756;2022-07-29T07:03:18;5.20;;;2.20;;
63016;SDS011;50274;45.640;11.756;2022-07-29T07:05:44;6.38;;;2.60;;
63016;SDS011;50274;45.640;11.756;2022-07-29T07:08:11;5.72;;;2.35;;
63016;SDS011;50274;45.640;11.756;2022-07-29T07:10:37;5.22;;;2.40;;
63016;SDS011;50274;45.640;11.756;2022-07-29T07:13:04;5.63;;;2.00;;
63016;SDS011;50274;45.640;11.756;2022-07-29T07:15:30;4.43;;;2.20;;
63016;SDS011;50274;45.640;11.756;2022-07-29T07:17:56;4.82;;;2.22;;
63016;SDS011;50274;45.640;11.756;2022-07-29T07:20:22;5.55;;;2.20;;
63016;SDS011;50274;45.640;11.756;2022-07-29T07:22:49;6.10;;;2.28;;
63016;SDS011;50274;45.640;11.756;2022-07-29T07:25:15;5.70;;;2.50;;
63016;SDS011;50274;45.640;11.756;2022-07-29T07:27:42;4.35;;;2.28;;
63016;SDS011;50274;45.640;11.756;2022-07-29T07:30:09;4.90;;;2.28;;
63016;SDS011;50274;45.640;11.756;2022-07-29T07:32:35;5.00;;;2.28;;
63016;SDS011;50274;45.640;11.756;2022-07-29T07:35:01;4.63;;;2.20;;
63016;SDS011;50274;45.640;11.756;2022-07-29T07:37:29;4.80;;;2.30;;
63016;SDS011;50274;45.640;11.756;2022-07-29T07:39:55;5.30;;;2.30;;
63016;SDS011;50274;45.640;11.756;2022-07-29T07:42:21;5.00;;;2.20;;
63016;SDS011;50274;45.640;11.756;2022-07-29T07:44:47;5.60;;;2.50;;
63016;SDS011;50274;45.640;11.756;2022-07-29T07:47:14;4.47;;;2.20;;
63016;SDS011;50274;45.640;11.756;2022-07-29T07:49:40;4.28;;;2.10;;
63016;SDS011;50274;45.640;11.756;2022-07-29T07:52:06;4.80;;;2.00;;
63016;SDS011;50274;45.640;11.756;2022-07-29T07:54:32;4.97;;;2.50;;
63016;SDS011;50274;45.640;11.756;2022-07-29T07:56:58;5.50;;;2.30;;
63016;SDS011;50274;45.640;11.756;2022-07-29T07:59:23;6.72;;;2.40;;
63016;SDS011;50274;45.640;11.756;2022-07-29T08:01:49;4.97;;;2.38;;
63016;SDS011;50274;45.640;11.756;2022-07-29T08:04:18;5.33;;;2.60;;
63016;SDS011;50274;45.640;11.756;2022-07-29T08:06:46;5.40;;;2.63;;
63016;SDS011;50274;45.640;11.756;2022-07-29T08:09:14;5.70;;;2.50;;
63016;SDS011;50274;45.640;11.756;2022-07-29T08:11:40;6.25;;;2.50;;
63016;SDS011;50274;45.640;11.756;2022-07-29T08:14:06;5.65;;;2.58;;
63016;SDS011;50274;45.640;11.756;2022-07-29T08:16:33;5.00;;;2.27;;
63016;SDS011;50274;45.640;11.756;2022-07-29T08:18:58;4.88;;;2.50;;
63016;SDS011;50274;45.640;11.756;2022-07-29T08:21:24;5.70;;;2.47;;
63016;SDS011;50274;45.640;11.756;2022-07-29T08:23:51;5.87;;;2.40;;
63016;SDS011;50274;45.640;11.756;2022-07-29T08:26:43;5.18;;;2.33;;
63016;SDS011;50274;45.640;11.756;2022-07-29T08:29:09;4.72;;;2.47;;
63016;SDS011;50274;45.640;11.756;2022-07-29T08:31:36;6.20;;;2.50;;
63016;SDS011;50274;45.640;11.756;2022-07-29T08:34:03;6.68;;;2.35;;
63016;SDS011;50274;45.640;11.756;2022-07-29T08:36:29;5.50;;;2.20;;
63016;SDS011;50274;45.640;11.756;2022-07-29T08:38:55;7.03;;;2.60;;
63016;SDS011;50274;45.640;11.756;2022-07-29T08:41:21;6.07;;;2.67;;
63016;SDS011;50274;45.640;11.756;2022-07-29T08:43:48;6.35;;;2.55;;
63016;SDS011;50274;45.640;11.756;2022-07-29T08:46:15;6.03;;;2.60;;
63016;SDS011;50274;45.640;11.756;2022-07-29T08:48:42;6.00;;;2.70;;
63016;SDS011;50274;45.640;11.756;2022-07-29T08:51:08;7.13;;;3.10;;
63016;SDS011;50274;45.640;11.756;2022-07-29T08:53:43;10.90;;;2.70;;
63016;SDS011;50274;45.640;11.756;2022-07-29T08:56:16;7.60;;;2.55;;
63016;SDS011;50274;45.640;11.756;2022-07-29T08:58:44;6.15;;;2.88;;
63016;SDS011;50274;45.640;11.756;2022-07-29T09:01:12;6.53;;;2.60;;
63016;SDS011;50274;45.640;11.756;2022-07-29T09:03:41;6.13;;;2.80;;
63016;SDS011;50274;45.640;11.756;2022-07-29T09:06:14;5.95;;;2.60;;
63016;SDS011;50274;45.640;11.756;2022-07-29T09:08:43;4.68;;;2.50;;
63016;SDS011;50274;45.640;11.756;2022-07-29T09:11:10;8.52;;;2.70;;
63016;SDS011;50274;45.640;11.756;2022-07-29T09:13:37;6.90;;;2.70;;
63016;SDS011;50274;45.640;11.756;2022-07-29T09:16:03;5.20;;;2.47;;
63016;SDS011;50274;45.640;11.756;2022-07-29T09:18:39;6.40;;;2.80;;
63016;SDS011;50274;45.640;11.756;2022-07-29T09:21:07;5.97;;;2.90;;
63016;SDS011;50274;45.640;11.756;2022-07-29T09:24:20;5.97;;;2.90;;
63016;SDS011;50274;45.640;11.756;2022-07-29T09:26:45;6.22;;;2.80;;
63016;SDS011;50274;45.640;11.756;2022-07-29T09:29:16;5.97;;;2.78;;
63016;SDS011;50274;45.640;11.756;2022-07-29T09:31:43;4.90;;;2.60;;
63016;SDS011;50274;45.640;11.756;2022-07-29T09:34:11;4.80;;;2.55;;
63016;SDS011;50274;45.640;11.756;2022-07-29T09:36:42;9.63;;;3.23;;
63016;SDS011;50274;45.640;11.756;2022-07-29T09:39:13;7.00;;;2.67;;
63016;SDS011;50274;45.640;11.756;2022-07-29T09:44:14;9.20;;;2.90;;
63016;SDS011;50274;45.640;11.756;2022-07-29T09:47:02;5.10;;;2.50;;
63016;SDS011;50274;45.640;11.756;2022-07-29T09:49:31;6.50;;;2.73;;
63016;SDS011;50274;45.640;11.756;2022-07-29T09:51:59;6.05;;;2.70;;
63016;SDS011;50274;45.640;11.756;2022-07-29T09:54:26;5.70;;;2.47;;
63016;SDS011;50274;45.640;11.756;2022-07-29T09:56:53;6.28;;;2.40;;
63016;SDS011;50274;45.640;11.756;2022-07-29T09:59:20;5.72;;;2.65;;
63016;SDS011;50274;45.640;11.756;2022-07-29T10:01:49;5.37;;;2.67;;
63016;SDS011;50274;45.640;11.756;2022-07-29T10:04:15;5.43;;;2.58;;
63016;SDS011;50274;45.640;11.756;2022-07-29T10:06:59;6.13;;;2.60;;
63016;SDS011;50274;45.640;11.756;2022-07-29T10:09:27;5.78;;;2.72;;
63016;SDS011;50274;45.640;11.756;2022-07-29T10:12:10;6.90;;;2.70;;
63016;SDS011;50274;45.640;11.756;2022-07-29T10:14:39;8.13;;;2.65;;
63016;SDS011;50274;45.640;11.756;2022-07-29T10:17:06;6.68;;;3.13;;
63016;SDS011;50274;45.640;11.756;2022-07-29T10:19:33;5.80;;;2.40;;
63016;SDS011;50274;45.640;11.756;2022-07-29T10:22:01;5.28;;;2.65;;
63016;SDS011;50274;45.640;11.756;2022-07-29T10:24:30;5.43;;;2.40;;
63016;SDS011;50274;45.640;11.756;2022-07-29T10:26:57;5.53;;;2.80;;
63016;SDS011;50274;45.640;11.756;2022-07-29T10:29:25;5.60;;;2.53;;
63016;SDS011;50274;45.640;11.756;2022-07-29T10:34:27;5.03;;;2.35;;
63016;SDS011;50274;45.640;11.756;2022-07-29T10:37:26;9.03;;;2.80;;
63016;SDS011;50274;45.640;11.756;2022-07-29T10:43:46;5.05;;;2.83;;
63016;SDS011;50274;45.640;11.756;2022-07-29T10:46:07;4.82;;;2.53;;
63016;SDS011;50274;45.640;11.756;2022-07-29T10:48:35;7.00;;;3.13;;
63016;SDS011;50274;45.640;11.756;2022-07-29T10:51:21;6.03;;;3.00;;
63016;SDS011;50274;45.640;11.756;2022-07-29T10:56:28;5.25;;;2.60;;
63016;SDS011;50274;45.640;11.756;2022-07-29T10:59:40;6.05;;;2.90;;
63016;SDS011;50274;45.640;11.756;2022-07-29T11:01:52;5.38;;;2.95;;
63016;SDS011;50274;45.640;11.756;2022-07-29T11:07:11;10.40;;;3.30;;
63016;SDS011;50274;45.640;11.756;2022-07-29T11:09:38;5.82;;;3.30;;
63016;SDS011;50274;45.640;11.756;2022-07-29T11:12:49;6.90;;;3.03;;
63016;SDS011;50274;45.640;11.756;2022-07-29T11:15:03;7.32;;;3.15;;
63016;SDS011;50274;45.640;11.756;2022-07-29T11:34:19;7.93;;;3.00;;
63016;SDS011;50274;45.640;11.756;2022-07-29T11:39:37;6.90;;;2.80;;
63016;SDS011;50274;45.640;11.756;2022-07-29T11:44:54;5.23;;;2.90;;
63016;SDS011;50274;45.640;11.756;2022-07-29T11:47:32;6.15;;;2.67;;
63016;SDS011;50274;45.640;11.756;2022-07-29T11:50:00;5.75;;;3.15;;
63016;SDS011;50274;45.640;11.756;2022-07-29T11:52:43;5.88;;;3.10;;
63016;SDS011;50274;45.640;11.756;2022-07-29T11:55:14;6.15;;;2.85;;
63016;SDS011;50274;45.640;11.756;2022-07-29T11:57:45;6.83;;;2.90;;
63016;SDS011;50274;45.640;11.756;2022-07-29T12:00:29;6.00;;;3.00;;
63016;SDS011;50274;45.640;11.756;2022-07-29T12:02:57;5.60;;;3.03;;
63016;SDS011;50274;45.640;11.756;2022-07-29T12:05:45;6.20;;;3.17;;
63016;SDS011;50274;45.640;11.756;2022-07-29T12:08:11;6.22;;;3.05;;
63016;SDS011;50274;45.640;11.756;2022-07-29T12:10:44;5.93;;;2.73;;
63016;SDS011;50274;45.640;11.756;2022-07-29T12:13:12;6.78;;;2.80;;
63016;SDS011;50274;45.640;11.756;2022-07-29T12:15:39;6.60;;;3.20;;
63016;SDS011;50274;45.640;11.756;2022-07-29T12:18:24;6.07;;;2.63;;
63016;SDS011;50274;45.640;11.756;2022-07-29T12:20:58;5.22;;;2.60;;
63016;SDS011;50274;45.640;11.756;2022-07-29T12:23:25;5.27;;;2.57;;
63016;SDS011;50274;45.640;11.756;2022-07-29T12:25:51;5.32;;;2.47;;
63016;SDS011;50274;45.640;11.756;2022-07-29T12:28:17;5.05;;;2.95;;
63016;SDS011;50274;45.640;11.756;2022-07-29T12:30:47;5.20;;;3.20;;
63016;SDS011;50274;45.640;11.756;2022-07-29T12:35:39;8.65;;;2.45;;
63016;SDS011;50274;45.640;11.756;2022-07-29T12:38:06;5.57;;;2.58;;
63016;SDS011;50274;45.640;11.756;2022-07-29T12:40:35;4.60;;;2.42;;
63016;SDS011;50274;45.640;11.756;2022-07-29T12:43:08;5.87;;;2.90;;
63016;SDS011;50274;45.640;11.756;2022-07-29T12:45:37;4.60;;;2.30;;
63016;SDS011;50274;45.640;11.756;2022-07-29T12:48:04;5.05;;;2.83;;
63016;SDS011;50274;45.640;11.756;2022-07-29T12:50:31;5.93;;;2.67;;
63016;SDS011;50274;45.640;11.756;2022-07-29T12:53:10;6.45;;;2.90;;
63016;SDS011;50274;45.640;11.756;2022-07-29T12:55:47;5.30;;;2.37;;
63016;SDS011;50274;45.640;11.756;2022-07-29T12:58:26;5.85;;;2.65;;
63016;SDS011;50274;45.640;11.756;2022-07-29T13:06:36;5.85;;;2.42;;
63016;SDS011;50274;45.640;11.756;2022-07-29T13:09:13;4.80;;;2.77;;
63016;SDS011;50274;45.640;11.756;2022-07-29T13:11:41;4.93;;;2.50;;
63016;SDS011;50274;45.640;11.756;2022-07-29T13:14:34;6.10;;;2.75;;
63016;SDS011;50274;45.640;11.756;2022-07-29T13:19:36;5.18;;;2.50;;
63016;SDS011;50274;45.640;11.756;2022-07-29T13:22:10;4.23;;;2.20;;
63016;SDS011;50274;45.640;11.756;2022-07-29T13:24:56;4.60;;;2.40;;
63016;SDS011;50274;45.640;11.756;2022-07-29T13:27:29;5.00;;;2.47;;
63016;SDS011;50274;45.640;11.756;2022-07-29T13:29:57;4.25;;;2.30;;
63016;SDS011;50274;45.640;11.756;2022-07-29T13:32:28;5.22;;;2.95;;
63016;SDS011;50274;45.640;11.756;2022-07-29T13:34:55;4.80;;;2.50;;
63016;SDS011;50274;45.640;11.756;2022-07-29T13:37:22;5.72;;;2.85;;
63016;SDS011;50274;45.640;11.756;2022-07-29T13:39:48;6.25;;;3.22;;
63016;SDS011;50274;45.640;11.756;2022-07-29T13:42:14;5.22;;;2.67;;
63016;SDS011;50274;45.640;11.756;2022-07-29T13:44:40;6.13;;;2.87;;
63016;SDS011;50274;45.640;11.756;2022-07-29T13:47:06;5.53;;;3.10;;
63016;SDS011;50274;45.640;11.756;2022-07-29T13:49:33;6.40;;;2.72;;
63016;SDS011;50274;45.640;11.756;2022-07-29T13:51:59;8.10;;;3.08;;
63016;SDS011;50274;45.640;11.756;2022-07-29T13:54:28;5.67;;;2.70;;
63016;SDS011;50274;45.640;11.756;2022-07-29T13:56:54;6.15;;;2.72;;
63016;SDS011;50274;45.640;11.756;2022-07-29T13:59:20;6.15;;;2.78;;
63016;SDS011;50274;45.640;11.756;2022-07-29T14:01:45;7.10;;;3.07;;
63016;SDS011;50274;45.640;11.756;2022-07-29T14:04:11;8.30;;;2.70;;
63016;SDS011;50274;45.640;11.756;2022-07-29T14:06:37;6.63;;;3.15;;
63016;SDS011;50274;45.640;11.756;2022-07-29T14:09:03;6.07;;;2.40;;
63016;SDS011;50274;45.640;11.756;2022-07-29T14:11:36;5.43;;;2.70;;
63016;SDS011;50274;45.640;11.756;2022-07-29T14:14:03;6.38;;;2.70;;
63016;SDS011;50274;45.640;11.756;2022-07-29T14:16:29;6.07;;;2.50;;
63016;SDS011;50274;45.640;11.756;2022-07-29T14:18:55;8.18;;;3.10;;
63016;SDS011;50274;45.640;11.756;2022-07-29T14:21:21;7.90;;;2.70;;
63016;SDS011;50274;45.640;11.756;2022-07-29T14:23:46;6.70;;;2.80;;
63016;SDS011;50274;45.640;11.756;2022-07-29T14:26:12;5.32;;;2.65;;
63016;SDS011;50274;45.640;11.756;2022-07-29T14:28:38;4.50;;;2.43;;
63016;SDS011;50274;45.640;11.756;2022-07-29T14:31:05;5.28;;;2.80;;
63016;SDS011;50274;45.640;11.756;2022-07-29T14:33:30;5.90;;;3.00;;
63016;SDS011;50274;45.640;11.756;2022-07-29T14:35:56;5.77;;;3.00;;
63016;SDS011;50274;45.640;11.756;2022-07-29T14:38:22;7.05;;;2.70;;
63016;SDS011;50274;45.640;11.756;2022-07-29T14:40:48;5.00;;;2.60;;
63016;SDS011;50274;45.640;11.756;2022-07-29T14:43:14;5.50;;;2.90;;
63016;SDS011;50274;45.640;11.756;2022-07-29T14:45:40;7.80;;;3.23;;
63016;SDS011;50274;45.640;11.756;2022-07-29T14:48:06;5.72;;;2.67;;
63016;SDS011;50274;45.640;11.756;2022-07-29T14:50:32;6.30;;;3.17;;
63016;SDS011;50274;45.640;11.756;2022-07-29T14:52:58;5.50;;;2.60;;
63016;SDS011;50274;45.640;11.756;2022-07-29T14:55:25;5.15;;;3.00;;
63016;SDS011;50274;45.640;11.756;2022-07-29T14:57:51;6.70;;;2.92;;
63016;SDS011;50274;45.640;11.756;2022-07-29T15:00:17;6.35;;;2.88;;
63016;SDS011;50274;45.640;11.756;2022-07-29T15:02:43;5.00;;;3.00;;
63016;SDS011;50274;45.640;11.756;2022-07-29T15:05:08;5.63;;;2.70;;
63016;SDS011;50274;45.640;11.756;2022-07-29T15:07:34;5.30;;;2.67;;
63016;SDS011;50274;45.640;11.756;2022-07-29T15:10:00;4.57;;;2.90;;
63016;SDS011;50274;45.640;11.756;2022-07-29T15:12:29;6.93;;;2.85;;
63016;SDS011;50274;45.640;11.756;2022-07-29T15:14:55;5.32;;;2.55;;
63016;SDS011;50274;45.640;11.756;2022-07-29T15:17:21;5.63;;;2.47;;
63016;SDS011;50274;45.640;11.756;2022-07-29T15:19:47;9.17;;;3.00;;
63016;SDS011;50274;45.640;11.756;2022-07-29T15:22:13;6.15;;;2.90;;
63016;SDS011;50274;45.640;11.756;2022-07-29T15:24:38;5.67;;;2.77;;
63016;SDS011;50274;45.640;11.756;2022-07-29T15:27:04;4.93;;;2.50;;
63016;SDS011;50274;45.640;11.756;2022-07-29T15:29:30;5.18;;;2.80;;
63016;SDS011;50274;45.640;11.756;2022-07-29T15:31:56;5.40;;;2.87;;
63016;SDS011;50274;45.640;11.756;2022-07-29T15:34:22;6.60;;;3.05;;
63016;SDS011;50274;45.640;11.756;2022-07-29T15:36:50;6.38;;;2.72;;